createdAt,value
2023-03-06T00:00:51.550Z,67.68
2023-03-06T00:01:51.537Z,67.68
2023-03-06T00:02:52.288Z,67.68
2023-03-06T00:03:51.558Z,67.68
2023-03-06T00:04:51.502Z,67.79
2023-03-06T00:05:51.545Z,67.68
2023-03-06T00:06:51.471Z,67.68
2023-03-06T00:07:51.458Z,67.68
2023-03-06T00:08:51.444Z,67.79
2023-03-06T00:09:51.429Z,67.79
2023-03-06T00:10:51.418Z,67.79
2023-03-06T00:11:51.406Z,67.79
2023-03-06T00:12:51.392Z,67.68
2023-03-06T00:13:51.378Z,67.68
2023-03-06T00:14:51.365Z,67.79
2023-03-06T00:15:51.450Z,67.79
2023-03-06T00:16:51.337Z,67.79
2023-03-06T00:17:51.322Z,67.68
2023-03-06T00:18:51.310Z,67.68
2023-03-06T00:19:51.296Z,67.79
2023-03-06T00:20:51.288Z,67.68
2023-03-06T00:21:51.292Z,67.79
2023-03-06T00:22:51.256Z,67.68
2023-03-06T00:23:51.242Z,67.68
2023-03-06T00:24:51.232Z,67.79
2023-03-06T00:25:51.219Z,67.68
2023-03-06T00:26:51.207Z,67.68
2023-03-06T00:27:51.186Z,67.68
2023-03-06T00:28:51.176Z,67.79
2023-03-06T00:29:51.159Z,67.79
2023-03-06T00:30:51.155Z,67.79
2023-03-06T00:31:51.142Z,67.79
2023-03-06T00:32:51.154Z,67.79
2023-03-06T00:33:51.110Z,67.79
2023-03-06T00:34:51.095Z,67.79
2023-03-06T00:35:51.094Z,67.68
2023-03-06T00:36:51.070Z,67.68
2023-03-06T00:37:51.077Z,67.68
2023-03-06T00:38:51.040Z,67.79
2023-03-06T00:39:51.024Z,67.79
2023-03-06T00:40:51.010Z,67.79
2023-03-06T00:41:51.000Z,67.79
2023-03-06T00:42:50.983Z,67.79
2023-03-06T00:43:50.969Z,67.79
2023-03-06T00:44:50.955Z,67.79
2023-03-06T00:45:50.955Z,67.79
2023-03-06T00:46:50.927Z,67.68
2023-03-06T00:47:50.911Z,67.79
2023-03-06T00:48:50.900Z,67.79
2023-03-06T00:49:51.037Z,67.68
2023-03-06T00:50:50.872Z,67.68
2023-03-06T00:51:50.856Z,67.79
2023-03-06T00:52:50.852Z,67.79
2023-03-06T00:53:50.852Z,67.79
2023-03-06T00:54:50.815Z,67.79
2023-03-06T00:55:50.808Z,67.79
2023-03-06T00:56:50.795Z,67.79
2023-03-06T00:57:50.775Z,67.79
2023-03-06T00:58:50.763Z,67.92
2023-03-06T00:59:50.745Z,67.92
2023-03-06T01:00:50.772Z,67.89
2023-03-06T01:01:50.779Z,67.82
2023-03-06T01:02:50.712Z,67.89
2023-03-06T01:03:50.693Z,67.92
2023-03-06T01:04:50.677Z,67.79
2023-03-06T01:05:50.664Z,67.79
2023-03-06T01:06:50.652Z,67.79
2023-03-06T01:07:50.648Z,67.92
2023-03-06T01:08:50.628Z,67.92
2023-03-06T01:09:50.647Z,67.79
2023-03-06T01:10:50.595Z,67.92
2023-03-06T01:11:50.581Z,67.82
2023-03-06T01:12:50.567Z,67.82
2023-03-06T01:13:50.554Z,67.82
2023-03-06T01:14:50.544Z,67.82
2023-03-06T01:15:50.526Z,67.89
2023-03-06T01:16:50.513Z,67.82
2023-03-06T01:17:50.498Z,67.82
2023-03-06T01:18:50.487Z,67.79
2023-03-06T01:19:50.474Z,67.89
2023-03-06T01:20:50.464Z,67.82
2023-03-06T01:21:50.444Z,67.89
2023-03-06T01:22:50.435Z,67.79
2023-03-06T01:23:50.416Z,67.89
2023-03-06T01:24:50.403Z,67.92
2023-03-06T01:25:50.414Z,67.82
2023-03-06T01:26:50.377Z,67.82
2023-03-06T01:27:50.363Z,67.92
2023-03-06T01:28:50.354Z,67.82
2023-03-06T01:29:50.336Z,67.92
2023-03-06T01:30:50.327Z,67.79
2023-03-06T01:31:50.347Z,67.92
2023-03-06T01:32:50.298Z,67.92
2023-03-06T01:33:50.284Z,67.79
2023-03-06T01:34:50.274Z,67.82
2023-03-06T01:35:50.296Z,67.82
2023-03-06T01:36:50.241Z,67.82
2023-03-06T01:37:50.231Z,67.82
2023-03-06T01:38:50.215Z,67.82
2023-03-06T01:39:50.205Z,67.82
2023-03-06T01:40:50.194Z,67.92
2023-03-06T01:41:50.206Z,67.92
2023-03-06T01:42:50.164Z,67.92
2023-03-06T01:43:50.156Z,67.92
2023-03-06T01:44:50.138Z,67.82
2023-03-06T01:45:50.163Z,67.82
2023-03-06T01:46:50.111Z,67.92
2023-03-06T01:47:50.100Z,67.82
2023-03-06T01:48:50.083Z,67.82
2023-03-06T01:49:50.074Z,67.82
2023-03-06T01:50:50.059Z,67.82
2023-03-06T01:51:50.045Z,67.82
2023-03-06T01:52:50.035Z,67.82
2023-03-06T01:53:50.018Z,67.82
2023-03-06T01:54:50.005Z,67.82
2023-03-06T01:55:49.995Z,67.82
2023-03-06T01:56:49.976Z,67.92
2023-03-06T01:57:49.985Z,67.82
2023-03-06T01:58:49.948Z,67.82
2023-03-06T01:59:49.938Z,67.82
2023-03-06T02:00:49.961Z,67.92
2023-03-06T02:01:49.910Z,67.92
2023-03-06T02:02:49.898Z,67.82
2023-03-06T02:03:49.906Z,67.82
2023-03-06T02:04:49.885Z,67.82
2023-03-06T02:05:49.854Z,67.82
2023-03-06T02:06:49.848Z,67.82
2023-03-06T02:07:49.828Z,67.82
2023-03-06T02:08:49.814Z,67.82
2023-03-06T02:09:49.804Z,67.82
2023-03-06T02:10:49.788Z,67.82
2023-03-06T02:11:49.815Z,67.79
2023-03-06T02:12:49.769Z,67.79
2023-03-06T02:13:49.777Z,67.82
2023-03-06T02:14:49.734Z,67.82
2023-03-06T02:15:49.723Z,67.82
2023-03-06T02:16:49.765Z,67.82
2023-03-06T02:17:49.705Z,67.82
2023-03-06T02:18:49.681Z,67.82
2023-03-06T02:19:49.668Z,67.82
2023-03-06T02:20:49.655Z,67.82
2023-03-06T02:21:49.645Z,67.82
2023-03-06T02:22:49.628Z,67.82
2023-03-06T02:23:49.616Z,67.82
2023-03-06T02:24:49.601Z,67.82
2023-03-06T02:25:49.589Z,67.82
2023-03-06T02:26:49.601Z,67.82
2023-03-06T02:27:49.595Z,67.79
2023-03-06T02:28:49.572Z,67.82
2023-03-06T02:29:49.563Z,67.82
2023-03-06T02:30:49.553Z,67.82
2023-03-06T02:31:49.511Z,67.82
2023-03-06T02:32:49.492Z,67.82
2023-03-06T02:33:49.482Z,67.71
2023-03-06T02:34:49.466Z,67.71
2023-03-06T02:35:49.488Z,67.71
2023-03-06T02:36:49.439Z,67.71
2023-03-06T02:37:49.425Z,67.82
2023-03-06T02:38:49.413Z,67.71
2023-03-06T02:39:49.406Z,67.71
2023-03-06T02:40:49.386Z,67.82
2023-03-06T02:41:49.381Z,67.82
2023-03-06T02:42:49.357Z,67.71
2023-03-06T02:43:49.344Z,67.82
2023-03-06T02:44:49.342Z,67.82
2023-03-06T02:45:49.383Z,67.71
2023-03-06T02:46:49.302Z,67.71
2023-03-06T02:47:49.297Z,67.71
2023-03-06T02:48:49.290Z,67.82
2023-03-06T02:49:49.265Z,67.82
2023-03-06T02:50:49.251Z,67.82
2023-03-06T02:51:49.235Z,67.82
2023-03-06T02:52:49.216Z,67.92
2023-03-06T02:53:49.213Z,67.92
2023-03-06T02:54:49.196Z,67.82
2023-03-06T02:55:49.179Z,67.82
2023-03-06T02:56:49.182Z,67.92
2023-03-06T02:57:49.158Z,67.92
2023-03-06T02:58:49.146Z,67.82
2023-03-06T02:59:49.126Z,67.92
2023-03-06T03:00:49.114Z,67.82
2023-03-06T03:01:49.202Z,67.82
2023-03-06T03:02:49.084Z,67.82
2023-03-06T03:03:49.069Z,67.82
2023-03-06T03:04:49.169Z,67.82
2023-03-06T03:05:49.045Z,67.82
2023-03-06T03:06:49.030Z,67.82
2023-03-06T03:07:49.018Z,67.82
2023-03-06T03:08:49.005Z,67.82
2023-03-06T03:09:48.991Z,67.82
2023-03-06T03:10:48.973Z,67.82
2023-03-06T03:11:48.960Z,67.92
2023-03-06T03:12:48.947Z,67.82
2023-03-06T03:13:48.934Z,67.82
2023-03-06T03:14:48.919Z,67.82
2023-03-06T03:15:48.995Z,67.82
2023-03-06T03:16:48.893Z,67.82
2023-03-06T03:17:48.905Z,67.71
2023-03-06T03:18:48.867Z,67.82
2023-03-06T03:19:48.858Z,67.82
2023-03-06T03:20:48.842Z,67.82
2023-03-06T03:21:48.829Z,67.71
2023-03-06T03:22:48.820Z,67.82
2023-03-06T03:23:48.800Z,67.82
2023-03-06T03:24:48.864Z,67.82
2023-03-06T03:25:48.773Z,67.82
2023-03-06T03:26:48.760Z,67.82
2023-03-06T03:27:48.755Z,67.82
2023-03-06T03:28:48.734Z,67.82
2023-03-06T03:29:48.721Z,67.82
2023-03-06T03:30:48.736Z,67.82
2023-03-06T03:31:48.713Z,67.82
2023-03-06T03:32:48.678Z,67.82
2023-03-06T03:33:48.695Z,67.82
2023-03-06T03:34:48.659Z,67.82
2023-03-06T03:35:48.690Z,67.82
2023-03-06T03:36:48.636Z,67.92
2023-03-06T03:37:48.623Z,67.82
2023-03-06T03:38:48.618Z,67.82
2023-03-06T03:39:48.600Z,67.92
2023-03-06T03:40:48.570Z,67.82
2023-03-06T03:41:48.582Z,67.82
2023-03-06T03:42:48.545Z,67.82
2023-03-06T03:43:48.535Z,67.82
2023-03-06T03:44:48.516Z,67.82
2023-03-06T03:45:48.507Z,67.82
2023-03-06T03:46:48.582Z,67.71
2023-03-06T03:47:48.478Z,67.82
2023-03-06T03:48:48.463Z,67.82
2023-03-06T03:49:48.478Z,67.82
2023-03-06T03:50:48.443Z,67.82
2023-03-06T03:51:48.425Z,67.82
2023-03-06T03:52:48.408Z,67.82
2023-03-06T03:53:48.403Z,67.82
2023-03-06T03:54:48.380Z,67.82
2023-03-06T03:55:48.368Z,67.82
2023-03-06T03:56:48.355Z,67.82
2023-03-06T03:57:48.341Z,67.92
2023-03-06T03:58:48.325Z,67.92
2023-03-06T03:59:48.313Z,67.92
2023-03-06T04:00:48.297Z,67.82
2023-03-06T04:01:48.309Z,67.82
2023-03-06T04:02:48.281Z,67.82
2023-03-06T04:03:48.259Z,67.82
2023-03-06T04:04:48.315Z,67.82
2023-03-06T04:05:48.266Z,67.82
2023-03-06T04:06:48.214Z,67.82
2023-03-06T04:07:48.203Z,67.92
2023-03-06T04:08:48.197Z,67.92
2023-03-06T04:09:48.199Z,67.92
2023-03-06T04:10:48.163Z,67.92
2023-03-06T04:11:48.154Z,67.92
2023-03-06T04:12:48.140Z,67.92
2023-03-06T04:13:48.119Z,67.92
2023-03-06T04:14:48.103Z,67.92
2023-03-06T04:15:48.092Z,67.82
2023-03-06T04:16:48.078Z,67.82
2023-03-06T04:17:48.065Z,67.82
2023-03-06T04:18:48.050Z,67.82
2023-03-06T04:19:48.041Z,67.82
2023-03-06T04:20:48.021Z,67.71
2023-03-06T04:21:48.033Z,67.82
2023-03-06T04:22:48.000Z,67.82
2023-03-06T04:23:47.987Z,67.71
2023-03-06T04:24:47.973Z,67.71
2023-03-06T04:25:47.956Z,67.71
2023-03-06T04:26:47.943Z,67.82
2023-03-06T04:27:47.930Z,67.71
2023-03-06T04:28:47.914Z,67.82
2023-03-06T04:29:47.908Z,67.82
2023-03-06T04:30:47.893Z,67.82
2023-03-06T04:31:47.992Z,67.82
2023-03-06T04:32:47.862Z,67.82
2023-03-06T04:33:47.850Z,67.71
2023-03-06T04:34:47.850Z,67.71
2023-03-06T04:35:47.883Z,67.71
2023-03-06T04:36:47.821Z,67.82
2023-03-06T04:37:47.846Z,67.82
2023-03-06T04:38:47.834Z,67.82
2023-03-06T04:39:47.770Z,67.82
2023-03-06T04:40:47.753Z,67.82
2023-03-06T04:41:47.743Z,67.92
2023-03-06T04:42:47.726Z,67.92
2023-03-06T04:43:47.714Z,67.92
2023-03-06T04:44:47.700Z,67.92
2023-03-06T04:45:47.780Z,67.92
2023-03-06T04:46:47.673Z,67.92
2023-03-06T04:47:47.668Z,67.92
2023-03-06T04:48:47.661Z,68.02
2023-03-06T04:49:47.633Z,68.02
2023-03-06T04:50:47.617Z,67.92
2023-03-06T04:51:47.633Z,67.92
2023-03-06T04:52:47.592Z,67.82
2023-03-06T04:53:47.605Z,67.79
2023-03-06T04:54:47.594Z,67.82
2023-03-06T04:55:47.558Z,67.71
2023-03-06T04:56:47.550Z,67.82
2023-03-06T04:57:47.524Z,67.82
2023-03-06T04:58:47.509Z,67.71
2023-03-06T04:59:47.498Z,67.71
2023-03-06T05:00:47.500Z,67.82
2023-03-06T05:01:47.641Z,67.82
2023-03-06T05:02:47.460Z,67.71
2023-03-06T05:03:47.441Z,67.61
2023-03-06T05:04:47.425Z,67.58
2023-03-06T05:05:47.412Z,67.51
2023-03-06T05:06:47.397Z,67.48
2023-03-06T05:07:47.385Z,67.40
2023-03-06T05:08:47.374Z,67.37
2023-03-06T05:09:47.383Z,67.37
2023-03-06T05:10:47.344Z,67.37
2023-03-06T05:11:47.330Z,67.37
2023-03-06T05:12:47.315Z,67.40
2023-03-06T05:13:47.307Z,67.37
2023-03-06T05:14:48.153Z,67.27
2023-03-06T05:15:47.277Z,67.27
2023-03-06T05:16:47.363Z,67.27
2023-03-06T05:17:47.248Z,67.30
2023-03-06T05:18:50.192Z,67.27
2023-03-06T05:19:47.228Z,67.30
2023-03-06T05:20:47.205Z,67.27
2023-03-06T05:21:47.197Z,67.27
2023-03-06T05:22:47.177Z,67.30
2023-03-06T05:23:47.174Z,67.30
2023-03-06T05:24:47.150Z,67.30
2023-03-06T05:25:47.169Z,67.30
2023-03-06T05:26:47.122Z,67.30
2023-03-06T05:27:47.111Z,67.40
2023-03-06T05:28:47.096Z,67.51
2023-03-06T05:29:47.084Z,67.40
2023-03-06T05:30:47.069Z,67.51
2023-03-06T05:31:47.131Z,67.51
2023-03-06T05:32:47.077Z,67.61
2023-03-06T05:33:47.032Z,67.61
2023-03-06T05:34:47.014Z,67.51
2023-03-06T05:35:47.024Z,67.61
2023-03-06T05:36:46.988Z,67.61
2023-03-06T05:37:46.978Z,67.71
2023-03-06T05:38:46.975Z,67.61
2023-03-06T05:39:46.968Z,67.71
2023-03-06T05:40:46.940Z,67.71
2023-03-06T05:41:46.948Z,67.71
2023-03-06T05:42:46.911Z,67.71
2023-03-06T05:43:46.903Z,67.68
2023-03-06T05:44:46.883Z,67.71
2023-03-06T05:45:46.932Z,67.68
2023-03-06T05:46:46.858Z,67.71
2023-03-06T05:47:46.842Z,67.71
2023-03-06T05:48:47.121Z,67.71
2023-03-06T05:49:46.820Z,67.82
2023-03-06T05:50:46.821Z,68.20
2023-03-06T05:51:46.793Z,67.89
2023-03-06T05:52:46.775Z,67.68
2023-03-06T05:53:46.763Z,67.79
2023-03-06T05:54:46.750Z,67.99
2023-03-06T05:55:46.734Z,67.89
2023-03-06T05:56:46.722Z,67.79
2023-03-06T05:57:46.734Z,67.82
2023-03-06T05:58:46.694Z,67.79
2023-03-06T05:59:46.677Z,67.82
2023-03-06T06:00:46.664Z,67.82
2023-03-06T06:01:46.656Z,67.68
2023-03-06T06:02:46.638Z,67.82
2023-03-06T06:03:46.673Z,67.79
2023-03-06T06:04:46.622Z,67.89
2023-03-06T06:05:46.594Z,67.79
2023-03-06T06:06:46.586Z,67.82
2023-03-06T06:07:46.568Z,67.68
2023-03-06T06:08:46.589Z,67.79
2023-03-06T06:09:46.555Z,67.79
2023-03-06T06:10:46.533Z,67.82
2023-03-06T06:11:46.510Z,67.82
2023-03-06T06:12:46.506Z,67.79
2023-03-06T06:13:46.525Z,67.79
2023-03-06T06:14:46.485Z,67.79
2023-03-06T06:15:46.508Z,67.79
2023-03-06T06:16:46.446Z,67.79
2023-03-06T06:17:46.435Z,67.79
2023-03-06T06:18:46.418Z,67.68
2023-03-06T06:19:46.404Z,67.68
2023-03-06T06:20:46.401Z,67.68
2023-03-06T06:21:46.374Z,67.68
2023-03-06T06:22:46.362Z,67.68
2023-03-06T06:23:46.361Z,67.68
2023-03-06T06:24:46.346Z,67.68
2023-03-06T06:25:46.332Z,67.68
2023-03-06T06:26:46.350Z,67.71
2023-03-06T06:27:46.302Z,67.68
2023-03-06T06:28:46.308Z,67.71
2023-03-06T06:29:46.324Z,67.68
2023-03-06T06:30:46.323Z,67.68
2023-03-06T06:31:46.263Z,67.68
2023-03-06T06:32:46.239Z,67.68
2023-03-06T06:33:46.211Z,67.68
2023-03-06T06:34:46.207Z,67.68
2023-03-06T06:35:46.232Z,67.58
2023-03-06T06:36:46.173Z,67.68
2023-03-06T06:37:46.161Z,67.68
2023-03-06T06:38:46.179Z,67.58
2023-03-06T06:39:46.129Z,67.58
2023-03-06T06:41:04.207Z,67.58
2023-03-06T06:42:00.085Z,67.58
2023-03-06T06:42:48.782Z,67.58
2023-03-06T06:43:52.084Z,67.58
2023-03-06T06:44:46.089Z,67.58
2023-03-06T06:45:46.339Z,67.58
2023-03-06T06:47:47.114Z,67.58
2023-03-06T06:48:49.064Z,67.58
2023-03-06T06:49:52.025Z,67.58
2023-03-06T06:50:46.039Z,67.68
2023-03-06T06:51:51.970Z,67.79
2023-03-06T06:52:45.984Z,67.79
2023-03-06T06:53:45.946Z,67.79
2023-03-06T06:54:45.931Z,67.79
2023-03-06T06:55:45.911Z,67.82
2023-03-06T06:56:45.899Z,67.82
2023-03-06T06:57:45.884Z,67.82
2023-03-06T06:58:45.875Z,67.82
2023-03-06T06:59:45.931Z,67.79
2023-03-06T07:00:45.846Z,67.79
2023-03-06T07:01:45.953Z,67.79
2023-03-06T07:02:45.818Z,67.82
2023-03-06T07:03:45.830Z,67.89
2023-03-06T07:05:00.764Z,67.79
2023-03-06T07:05:46.820Z,67.79
2023-03-06T07:06:45.763Z,67.89
2023-03-06T07:07:45.759Z,67.79
2023-03-06T07:08:45.736Z,67.79
2023-03-06T07:09:45.730Z,67.68
2023-03-06T07:10:45.710Z,67.79
2023-03-06T07:11:45.698Z,67.79
2023-03-06T07:12:45.691Z,67.79
2023-03-06T07:13:45.668Z,67.79
2023-03-06T07:14:45.657Z,67.79
2023-03-06T07:15:45.708Z,67.79
2023-03-06T07:16:45.632Z,67.79
2023-03-06T07:17:45.838Z,67.79
2023-03-06T07:18:45.611Z,67.79
2023-03-06T07:19:45.592Z,67.79
2023-03-06T07:20:45.581Z,67.79
2023-03-06T07:21:45.561Z,67.79
2023-03-06T07:22:51.418Z,67.79
2023-03-06T07:23:46.569Z,67.68
2023-03-06T07:24:45.519Z,67.68
2023-03-06T07:25:45.503Z,67.68
2023-03-06T07:26:45.491Z,67.68
2023-03-06T07:27:52.579Z,67.68
2023-03-06T07:28:52.584Z,67.68
2023-03-06T07:29:46.490Z,67.58
2023-03-06T07:30:45.538Z,67.58
2023-03-06T07:31:45.440Z,67.58
2023-03-06T07:32:45.410Z,67.58
2023-03-06T07:33:45.416Z,67.68
2023-03-06T07:34:45.385Z,67.68
2023-03-06T07:35:45.393Z,67.68
2023-03-06T07:36:45.402Z,67.79
2023-03-06T07:37:45.346Z,67.44
2023-03-06T07:38:45.332Z,67.34
2023-03-06T07:39:45.328Z,67.24
2023-03-06T07:40:45.308Z,67.24
2023-03-06T07:41:45.293Z,67.24
2023-03-06T07:42:45.285Z,67.37
2023-03-06T07:43:45.271Z,67.37
2023-03-06T07:44:45.261Z,67.48
2023-03-06T07:45:45.244Z,67.58
2023-03-06T07:46:45.257Z,67.68
2023-03-06T07:47:45.221Z,67.68
2023-03-06T07:48:45.211Z,67.79
2023-03-06T07:49:45.237Z,67.79
2023-03-06T07:50:45.182Z,67.89
2023-03-06T07:51:45.166Z,67.89
2023-03-06T07:52:45.151Z,67.89
2023-03-06T07:53:45.170Z,67.89
2023-03-06T07:54:45.125Z,67.89
2023-03-06T07:55:45.110Z,67.89
2023-03-06T07:56:45.099Z,67.89
2023-03-06T07:57:45.087Z,67.89
2023-03-06T07:58:45.092Z,67.89
2023-03-06T07:59:45.062Z,67.89
2023-03-06T08:00:45.047Z,67.79
2023-03-06T08:01:45.035Z,67.79
2023-03-06T08:02:45.066Z,67.55
2023-03-06T08:03:45.047Z,67.24
2023-03-06T08:04:44.996Z,67.13
2023-03-06T08:05:45.002Z,67.13
2023-03-06T08:06:44.971Z,67.13
2023-03-06T08:07:44.951Z,67.13
2023-03-06T08:08:44.939Z,67.13
2023-03-06T08:09:44.926Z,67.13
2023-03-06T08:10:44.912Z,67.24
2023-03-06T08:11:44.912Z,67.24
2023-03-06T08:12:44.892Z,67.34
2023-03-06T08:13:44.868Z,67.37
2023-03-06T08:14:44.854Z,67.37
2023-03-06T08:15:44.840Z,67.37
2023-03-06T08:16:44.827Z,67.37
2023-03-06T08:17:44.812Z,67.37
2023-03-06T08:18:46.312Z,67.37
2023-03-06T08:19:44.790Z,67.37
2023-03-06T08:20:44.773Z,67.37
2023-03-06T08:21:44.782Z,67.37
2023-03-06T08:22:44.755Z,67.37
2023-03-06T08:23:44.750Z,67.37
2023-03-06T08:24:44.727Z,67.37
2023-03-06T08:25:44.720Z,67.27
2023-03-06T08:26:44.706Z,67.27
2023-03-06T08:27:44.674Z,67.27
2023-03-06T08:28:44.707Z,67.27
2023-03-06T08:29:44.647Z,67.37
2023-03-06T08:30:44.659Z,67.27
2023-03-06T08:31:44.747Z,67.27
2023-03-06T08:32:44.642Z,67.27
2023-03-06T08:33:44.597Z,67.27
2023-03-06T08:34:44.584Z,67.27
2023-03-06T08:35:44.635Z,67.27
2023-03-06T08:36:44.577Z,67.27
2023-03-06T08:37:44.667Z,67.27
2023-03-06T08:38:44.545Z,67.27
2023-03-06T08:39:44.551Z,67.27
2023-03-06T08:40:44.501Z,67.37
2023-03-06T08:41:44.484Z,67.37
2023-03-06T08:42:44.473Z,67.37
2023-03-06T08:43:44.453Z,67.37
2023-03-06T08:44:44.446Z,67.37
2023-03-06T08:45:44.463Z,67.37
2023-03-06T08:46:44.420Z,67.37
2023-03-06T08:47:44.403Z,67.37
2023-03-06T08:48:44.390Z,67.37
2023-03-06T08:49:44.375Z,67.37
2023-03-06T08:50:44.362Z,67.27
2023-03-06T08:51:44.350Z,67.37
2023-03-06T08:52:44.337Z,67.27
2023-03-06T08:53:44.728Z,67.37
2023-03-06T08:54:44.314Z,67.27
2023-03-06T08:55:44.292Z,67.27
2023-03-06T08:56:44.284Z,67.27
2023-03-06T08:57:44.272Z,67.27
2023-03-06T08:58:44.257Z,67.27
2023-03-06T08:59:44.240Z,67.27
2023-03-06T09:00:44.333Z,67.27
2023-03-06T09:01:44.264Z,67.27
2023-03-06T09:02:44.315Z,67.27
2023-03-06T09:03:44.188Z,67.27
2023-03-06T09:04:44.173Z,67.27
2023-03-06T09:05:44.158Z,67.16
2023-03-06T09:06:44.153Z,67.16
2023-03-06T09:07:44.131Z,67.16
2023-03-06T09:08:44.115Z,67.16
2023-03-06T09:09:44.125Z,67.16
2023-03-06T09:10:44.136Z,67.16
2023-03-06T09:11:44.072Z,67.16
2023-03-06T09:12:50.144Z,67.16
2023-03-06T09:13:45.089Z,67.16
2023-03-06T09:14:44.088Z,67.16
2023-03-06T09:15:44.024Z,67.07
2023-03-06T09:16:44.081Z,67.07
2023-03-06T09:17:44.097Z,67.07
2023-03-06T09:18:43.982Z,67.16
2023-03-06T09:19:43.968Z,67.07
2023-03-06T09:20:43.959Z,67.07
2023-03-06T09:21:43.944Z,67.07
2023-03-06T09:22:54.440Z,67.07
2023-03-06T09:23:49.926Z,67.07
2023-03-06T09:24:49.938Z,67.07
2023-03-06T09:25:43.892Z,67.07
2023-03-06T09:26:46.505Z,67.07
2023-03-06T09:27:43.885Z,67.07
2023-03-06T09:28:43.856Z,66.96
2023-03-06T09:29:43.840Z,66.96
2023-03-06T09:30:43.873Z,66.96
2023-03-06T09:31:43.814Z,66.96
2023-03-06T09:32:43.841Z,66.96
2023-03-06T09:33:43.788Z,66.96
2023-03-06T09:34:49.790Z,66.96
2023-03-06T09:35:43.800Z,66.96
2023-03-06T09:36:56.055Z,66.86
2023-03-06T09:37:44.777Z,66.86
2023-03-06T09:38:43.722Z,66.86
2023-03-06T09:39:43.708Z,66.86
2023-03-06T09:40:43.725Z,66.86
2023-03-06T09:41:43.682Z,66.76
2023-03-06T09:42:43.670Z,66.76
2023-03-06T09:43:43.655Z,66.76
2023-03-06T09:44:43.644Z,66.76
2023-03-06T09:45:43.665Z,66.76
2023-03-06T09:46:43.645Z,66.65
2023-03-06T09:47:43.600Z,66.65
2023-03-06T09:48:43.594Z,66.65
2023-03-06T09:49:43.575Z,66.76
2023-03-06T09:50:43.559Z,66.65
2023-03-06T09:51:43.546Z,66.65
2023-03-06T09:52:43.555Z,66.65
2023-03-06T09:53:43.515Z,66.65
2023-03-06T09:54:43.514Z,66.65
2023-03-06T09:55:43.489Z,66.65
2023-03-06T09:56:43.518Z,66.65
2023-03-06T09:57:43.462Z,66.55
2023-03-06T09:58:43.456Z,66.55
2023-03-06T09:59:43.436Z,66.55
2023-03-06T10:00:43.419Z,66.55
2023-03-06T10:01:43.456Z,66.44
2023-03-06T10:02:43.539Z,66.44
2023-03-06T10:03:43.392Z,66.44
2023-03-06T10:04:43.468Z,66.44
2023-03-06T10:05:43.352Z,66.34
2023-03-06T10:06:43.339Z,66.34
2023-03-06T10:07:43.337Z,66.34
2023-03-06T10:08:43.331Z,66.24
2023-03-06T10:09:43.300Z,66.24
2023-03-06T10:10:43.281Z,66.24
2023-03-06T10:11:43.273Z,66.13
2023-03-06T10:12:43.277Z,66.13
2023-03-06T10:13:43.244Z,66.13
2023-03-06T10:14:43.227Z,66.13
2023-03-06T10:15:43.256Z,66.00
2023-03-06T10:16:43.201Z,66.10
2023-03-06T10:17:43.191Z,66.00
2023-03-06T10:18:43.179Z,66.04
2023-03-06T10:19:43.183Z,66.04
2023-03-06T10:20:43.151Z,66.04
2023-03-06T10:21:43.142Z,66.13
2023-03-06T10:22:46.089Z,66.13
2023-03-06T10:23:43.112Z,66.24
2023-03-06T10:24:43.095Z,66.04
2023-03-06T10:25:43.090Z,66.04
2023-03-06T10:26:43.245Z,66.04
2023-03-06T10:27:43.064Z,66.04
2023-03-06T10:28:43.080Z,66.04
2023-03-06T10:29:47.540Z,66.04
2023-03-06T10:30:44.082Z,66.04
2023-03-06T10:31:43.005Z,65.83
2023-03-06T10:32:48.895Z,65.93
2023-03-06T10:33:44.016Z,65.83
2023-03-06T10:34:42.961Z,65.83
2023-03-06T10:35:42.974Z,65.83
2023-03-06T10:36:42.935Z,65.83
2023-03-06T10:37:42.921Z,65.83
2023-03-06T10:38:42.905Z,65.83
2023-03-06T10:39:42.893Z,65.83
2023-03-06T10:40:48.881Z,65.83
2023-03-06T10:41:44.597Z,65.72
2023-03-06T10:42:42.851Z,65.72
2023-03-06T10:43:42.846Z,65.72
2023-03-06T10:44:42.878Z,65.72
2023-03-06T10:45:48.881Z,65.72
2023-03-06T10:46:42.820Z,65.72
2023-03-06T10:47:42.789Z,65.72
2023-03-06T10:48:42.888Z,65.72
2023-03-06T10:49:42.759Z,65.72
2023-03-06T10:50:42.743Z,65.83
2023-03-06T10:51:42.731Z,65.93
2023-03-06T10:52:42.715Z,66.04
2023-03-06T10:53:42.706Z,66.10
2023-03-06T10:54:42.692Z,66.13
2023-03-06T10:55:42.682Z,66.13
2023-03-06T10:56:42.658Z,66.24
2023-03-06T10:57:42.647Z,66.21
2023-03-06T10:58:42.640Z,66.24
2023-03-06T10:59:42.623Z,66.21
2023-03-06T11:00:42.645Z,66.21
2023-03-06T11:01:42.650Z,66.21
2023-03-06T11:02:42.578Z,66.21
2023-03-06T11:03:42.576Z,66.21
2023-03-06T11:04:42.574Z,66.21
2023-03-06T11:05:42.541Z,66.10
2023-03-06T11:06:42.526Z,66.00
2023-03-06T11:07:42.511Z,66.10
2023-03-06T11:08:42.500Z,66.10
2023-03-06T11:09:42.487Z,66.00
2023-03-06T11:10:42.467Z,66.00
2023-03-06T11:11:42.469Z,66.10
2023-03-06T11:12:42.451Z,66.00
2023-03-06T11:13:42.435Z,66.00
2023-03-06T11:14:42.436Z,65.90
2023-03-06T11:15:42.448Z,65.90
2023-03-06T11:16:42.426Z,65.90
2023-03-06T11:17:42.373Z,65.90
2023-03-06T11:18:42.355Z,65.90
2023-03-06T11:19:42.346Z,65.90
2023-03-06T11:20:51.597Z,65.90
2023-03-06T11:21:43.357Z,66.00
2023-03-06T11:22:42.306Z,65.90
2023-03-06T11:23:42.295Z,65.80
2023-03-06T11:24:42.280Z,65.80
2023-03-06T11:25:48.332Z,65.80
2023-03-06T11:26:42.310Z,65.80
2023-03-06T11:27:48.241Z,65.69
2023-03-06T11:28:42.228Z,65.80
2023-03-06T11:29:42.250Z,65.69
2023-03-06T11:30:42.195Z,65.69
2023-03-06T11:31:42.274Z,65.69
2023-03-06T11:32:42.353Z,65.69
2023-03-06T11:33:42.156Z,65.80
2023-03-06T11:34:42.142Z,65.80
2023-03-06T11:35:42.187Z,65.80
2023-03-06T11:36:42.112Z,65.80
2023-03-06T11:37:42.105Z,65.90
2023-03-06T11:38:42.083Z,65.90
2023-03-06T11:39:42.074Z,65.90
2023-03-06T11:40:42.058Z,65.90
2023-03-06T11:41:42.044Z,65.90
2023-03-06T11:42:42.034Z,65.90
2023-03-06T11:43:42.013Z,65.90
2023-03-06T11:44:42.007Z,65.80
2023-03-06T11:45:41.996Z,65.80
2023-03-06T11:46:42.060Z,65.80
2023-03-06T11:47:41.961Z,65.80
2023-03-06T11:48:42.023Z,65.80
2023-03-06T11:49:47.939Z,65.80
2023-03-06T11:50:41.918Z,65.80
2023-03-06T11:51:41.907Z,65.80
2023-03-06T11:52:41.890Z,65.80
2023-03-06T11:53:41.879Z,65.80
2023-03-06T11:54:41.866Z,65.69
2023-03-06T11:55:41.853Z,65.69
2023-03-06T11:56:41.842Z,65.69
2023-03-06T11:57:41.827Z,65.69
2023-03-06T11:58:41.818Z,65.69
2023-03-06T11:59:41.799Z,65.69
2023-03-06T12:00:41.787Z,65.69
2023-03-06T12:01:41.841Z,65.80
2023-03-06T12:02:41.762Z,65.80
2023-03-06T12:03:41.748Z,65.80
2023-03-06T12:04:41.795Z,65.80
2023-03-06T12:05:41.818Z,65.80
2023-03-06T12:06:47.720Z,65.80
2023-03-06T12:07:41.694Z,65.90
2023-03-06T12:08:41.679Z,65.90
2023-03-06T12:09:41.685Z,66.00
2023-03-06T12:10:41.654Z,66.00
2023-03-06T12:11:41.645Z,66.00
2023-03-06T12:12:41.627Z,66.00
2023-03-06T12:13:41.611Z,66.00
2023-03-06T12:14:41.621Z,66.00
2023-03-06T12:15:41.585Z,66.00
2023-03-06T12:16:41.652Z,66.00
2023-03-06T12:17:41.559Z,66.00
2023-03-06T12:18:41.542Z,65.90
2023-03-06T12:19:41.528Z,65.80
2023-03-06T12:20:41.598Z,65.80
2023-03-06T12:21:41.502Z,65.80
2023-03-06T12:22:42.169Z,65.80
2023-03-06T12:23:41.503Z,65.80
2023-03-06T12:24:41.460Z,65.80
2023-03-06T12:25:41.442Z,65.69
2023-03-06T12:26:41.427Z,65.69
2023-03-06T12:27:41.419Z,65.69
2023-03-06T12:28:41.411Z,65.69
2023-03-06T12:29:41.389Z,65.69
2023-03-06T12:30:41.376Z,65.69
2023-03-06T12:31:41.398Z,65.59
2023-03-06T12:32:41.441Z,65.59
2023-03-06T12:33:41.342Z,65.59
2023-03-06T12:34:41.322Z,65.49
2023-03-06T12:35:41.404Z,65.38
2023-03-06T12:36:41.398Z,65.28
2023-03-06T12:37:41.286Z,65.28
2023-03-06T12:38:41.268Z,65.17
2023-03-06T12:39:41.256Z,65.07
2023-03-06T12:40:41.259Z,65.07
2023-03-06T12:41:41.231Z,65.07
2023-03-06T12:42:41.214Z,65.07
2023-03-06T12:43:41.202Z,65.07
2023-03-06T12:44:41.191Z,64.97
2023-03-06T12:45:41.274Z,64.97
2023-03-06T12:46:41.162Z,64.87
2023-03-06T12:47:41.148Z,64.87
2023-03-06T12:48:41.136Z,64.87
2023-03-06T12:49:41.120Z,64.77
2023-03-06T12:50:41.109Z,64.77
2023-03-06T12:51:41.095Z,64.77
2023-03-06T12:52:41.122Z,64.77
2023-03-06T12:53:41.079Z,64.77